sensor_id;sensor_type;location;lat;lon;timestamp;pressure;altitude;pressure_sealevel;temperature;humidity
9676;BME280;4876;42.656;23.292;2023-03-01T00:01:34;94795.84;;;5.08;100.00
9676;BME280;4876;42.656;23.292;2023-03-01T00:04:01;94788.56;;;5.05;100.00
9676;BME280;4876;42.656;23.292;2023-03-01T00:06:27;94788.56;;;5.05;100.00
9676;BME280;4876;42.656;23.292;2023-03-01T00:08:54;94781.25;;;4.97;100.00
9676;BME280;4876;42.656;23.292;2023-03-01T00:11:24;94779.69;;;5.01;100.00
9676;BME280;4876;42.656;23.292;2023-03-01T00:13:54;94782.84;;;4.98;100.00
9676;BME280;4876;42.656;23.292;2023-03-01T00:16:23;94754.41;;;4.96;100.00
9676;BME280;4876;42.656;23.292;2023-03-01T00:18:50;94767.47;;;4.91;100.00
9676;BME280;4876;42.656;23.292;2023-03-01T00:21:17;94763.06;;;4.86;100.00
9676;BME280;4876;42.656;23.292;2023-03-01T00:23:46;94760.44;;;4.86;100.00
9676;BME280;4876;42.656;23.292;2023-03-01T00:26:14;94755.75;;;4.89;100.00
9676;BME280;4876;42.656;23.292;2023-03-01T00:28:43;94746.91;;;4.84;100.00
9676;BME280;4876;42.656;23.292;2023-03-01T00:31:12;94735.72;;;4.79;100.00
9676;BME280;4876;42.656;23.292;2023-03-01T00:33:39;94745.34;;;4.78;100.00
9676;BME280;4876;42.656;23.292;2023-03-01T00:36:07;94745.59;;;4.77;100.00
9676;BME280;4876;42.656;23.292;2023-03-01T00:38:35;94737.28;;;4.75;100.00
9676;BME280;4876;42.656;23.292;2023-03-01T00:41:05;94737.28;;;4.75;100.00
9676;BME280;4876;42.656;23.292;2023-03-01T00:43:33;94735.94;;;4.77;100.00
9676;BME280;4876;42.656;23.292;2023-03-01T00:46:04;94739.09;;;4.79;100.00
9676;BME280;4876;42.656;23.292;2023-03-01T00:48:31;94740.38;;;4.77;100.00
9676;BME280;4876;42.656;23.292;2023-03-01T00:51:04;94731.50;;;4.78;100.00
9676;BME280;4876;42.656;23.292;2023-03-01T00:53:31;94736.72;;;4.78;100.00
9676;BME280;4876;42.656;23.292;2023-03-01T00:55:58;94735.72;;;4.74;100.00
9676;BME280;4876;42.656;23.292;2023-03-01T00:58:25;94719.31;;;4.68;100.00
9676;BME280;4876;42.656;23.292;2023-03-01T01:00:52;94743.53;;;4.74;100.00
9676;BME280;4876;42.656;23.292;2023-03-01T01:03:21;94741.16;;;4.77;100.00
9676;BME280;4876;42.656;23.292;2023-03-01T01:05:50;94748.97;;;4.77;100.00
9676;BME280;4876;42.656;23.292;2023-03-01T01:08:16;94710.97;;;4.56;100.00
9676;BME280;4876;42.656;23.292;2023-03-01T01:10:43;94741.19;;;4.72;100.00
9676;BME280;4876;42.656;23.292;2023-03-01T01:13:11;94731.28;;;4.74;100.00
9676;BME280;4876;42.656;23.292;2023-03-01T01:15:38;94730.22;;;4.80;100.00
9676;BME280;4876;42.656;23.292;2023-03-01T01:18:05;94743.25;;;4.85;100.00
9676;BME280;4876;42.656;23.292;2023-03-01T01:20:35;94740.88;;;4.84;100.00
9676;BME280;4876;42.656;23.292;2023-03-01T01:23:05;94729.16;;;4.92;100.00
9676;BME280;4876;42.656;23.292;2023-03-01T01:25:34;94732.28;;;4.89;100.00
9676;BME280;4876;42.656;23.292;2023-03-01T01:28:01;94736.94;;;4.97;100.00
9676;BME280;4876;42.656;23.292;2023-03-01T01:30:28;94726.53;;;5.02;100.00
9676;BME280;4876;42.656;23.292;2023-03-01T01:32:54;94739.31;;;5.03;100.00
9676;BME280;4876;42.656;23.292;2023-03-01T01:35:21;94735.16;;;4.87;100.00
9676;BME280;4876;42.656;23.292;2023-03-01T01:37:49;94747.41;;;4.86;100.00
9676;BME280;4876;42.656;23.292;2023-03-01T01:40:16;94747.69;;;4.85;100.00
9676;BME280;4876;42.656;23.292;2023-03-01T01:42:43;94759.41;;;4.82;100.00
9676;BME280;4876;42.656;23.292;2023-03-01T01:45:32;94763.56;;;4.83;100.00
9676;BME280;4876;42.656;23.292;2023-03-01T01:48:02;94750.81;;;4.82;100.00
9676;BME280;4876;42.656;23.292;2023-03-01T01:50:30;94745.34;;;4.73;100.00
9676;BME280;4876;42.656;23.292;2023-03-01T01:53:07;94753.16;;;4.78;100.00
9676;BME280;4876;42.656;23.292;2023-03-01T01:55:37;94753.69;;;4.80;100.00
9676;BME280;4876;42.656;23.292;2023-03-01T01:58:07;94752.63;;;4.81;100.00
9676;BME280;4876;42.656;23.292;2023-03-01T02:00:34;94749.50;;;4.84;100.00
9676;BME280;4876;42.656;23.292;2023-03-01T02:03:04;94741.69;;;4.84;100.00
9676;BME280;4876;42.656;23.292;2023-03-01T02:05:36;94741.44;;;4.76;100.00
9676;BME280;4876;42.656;23.292;2023-03-01T02:08:06;94728.41;;;4.71;100.00
9676;BME280;4876;42.656;23.292;2023-03-01T02:10:34;94740.91;;;4.74;100.00
9676;BME280;4876;42.656;23.292;2023-03-01T02:13:02;94733.38;;;4.72;100.00
9676;BME280;4876;42.656;23.292;2023-03-01T02:15:31;94720.84;;;4.74;100.00
9676;BME280;4876;42.656;23.292;2023-03-01T02:17:59;94727.91;;;4.79;100.00
9676;BME280;4876;42.656;23.292;2023-03-01T02:20:33;94723.97;;;4.81;100.00
9676;BME280;4876;42.656;23.292;2023-03-01T02:23:00;94723.97;;;4.81;100.00
9676;BME280;4876;42.656;23.292;2023-03-01T02:25:32;94727.63;;;4.80;100.00
9676;BME280;4876;42.656;23.292;2023-03-01T02:28:06;94728.66;;;4.84;100.00
9676;BME280;4876;42.656;23.292;2023-03-01T02:30:36;94735.94;;;4.88;100.00
9676;BME280;4876;42.656;23.292;2023-03-01T02:33:24;94741.16;;;4.88;100.00
9676;BME280;4876;42.656;23.292;2023-03-01T02:35:50;94741.16;;;4.82;100.00
9676;BME280;4876;42.656;23.292;2023-03-01T02:38:19;94738.56;;;4.82;100.00
9676;BME280;4876;42.656;23.292;2023-03-01T02:40:48;94747.69;;;4.85;100.00
9676;BME280;4876;42.656;23.292;2023-03-01T02:43:17;94740.38;;;4.82;100.00
9676;BME280;4876;42.656;23.292;2023-03-01T02:45:49;94739.59;;;4.81;100.00
9676;BME280;4876;42.656;23.292;2023-03-01T02:48:16;94713.03;;;4.59;100.00
9676;BME280;4876;42.656;23.292;2023-03-01T02:50:55;94738.03;;;4.75;100.00
9676;BME280;4876;42.656;23.292;2023-03-01T02:53:35;94723.47;;;4.69;100.00
9676;BME280;4876;42.656;23.292;2023-03-01T02:56:05;94735.97;;;4.67;100.00
9676;BME280;4876;42.656;23.292;2023-03-01T02:58:38;94739.09;;;4.59;100.00
9676;BME280;4876;42.656;23.292;2023-03-01T03:01:12;94744.31;;;4.54;100.00
9676;BME280;4876;42.656;23.292;2023-03-01T03:03:40;94737.03;;;4.51;100.00
9676;BME280;4876;42.656;23.292;2023-03-01T03:06:07;94733.63;;;4.45;100.00
9676;BME280;4876;42.656;23.292;2023-03-01T03:08:34;94716.19;;;4.46;100.00
9676;BME280;4876;42.656;23.292;2023-03-01T03:11:01;94731.03;;;4.50;100.00
9676;BME280;4876;42.656;23.292;2023-03-01T03:13:28;94730.75;;;4.52;100.00
9676;BME280;4876;42.656;23.292;2023-03-01T03:15:56;94733.88;;;4.59;100.00
9676;BME280;4876;42.656;23.292;2023-03-01T03:18:24;94729.22;;;4.56;100.00
9676;BME280;4876;42.656;23.292;2023-03-01T03:20:52;94737.28;;;4.49;100.00
9676;BME280;4876;42.656;23.292;2023-03-01T03:23:20;94735.72;;;4.43;100.00
9676;BME280;4876;42.656;23.292;2023-03-01T03:25:48;94740.41;;;4.46;100.00
9676;BME280;4876;42.656;23.292;2023-03-01T03:28:15;94737.56;;;4.43;100.00
9676;BME280;4876;42.656;23.292;2023-03-01T03:30:42;94737.56;;;4.43;100.00
9676;BME280;4876;42.656;23.292;2023-03-01T03:33:09;94732.63;;;4.41;100.00
9676;BME280;4876;42.656;23.292;2023-03-01T03:35:40;94741.72;;;4.39;100.00
9676;BME280;4876;42.656;23.292;2023-03-01T03:38:10;94725.03;;;4.40;100.00
9676;BME280;4876;42.656;23.292;2023-03-01T03:40:42;94706.28;;;4.27;100.00
9676;BME280;4876;42.656;23.292;2023-03-01T03:43:14;94728.97;;;4.37;100.00
9676;BME280;4876;42.656;23.292;2023-03-01T03:45:41;94732.59;;;4.36;100.00
9676;BME280;4876;42.656;23.292;2023-03-01T03:48:10;94721.41;;;4.30;100.00
9676;BME280;4876;42.656;23.292;2023-03-01T03:50:39;94741.97;;;4.37;100.00
9676;BME280;4876;42.656;23.292;2023-03-01T03:53:07;94737.00;;;4.41;100.00
9676;BME280;4876;42.656;23.292;2023-03-01T03:55:35;94743.03;;;4.41;100.00
9676;BME280;4876;42.656;23.292;2023-03-01T03:58:06;94733.91;;;4.39;100.00
9676;BME280;4876;42.656;23.292;2023-03-01T04:00:34;94722.19;;;4.36;100.00
9676;BME280;4876;42.656;23.292;2023-03-01T04:03:01;94731.81;;;4.41;100.00
9676;BME280;4876;42.656;23.292;2023-03-01T04:05:28;94730.78;;;4.37;100.00
9676;BME280;4876;42.656;23.292;2023-03-01T04:07:57;94745.63;;;4.36;100.00
9676;BME280;4876;42.656;23.292;2023-03-01T04:10:34;94734.44;;;4.36;100.00
9676;BME280;4876;42.656;23.292;2023-03-01T04:13:02;94745.88;;;4.40;100.00
9676;BME280;4876;42.656;23.292;2023-03-01T04:15:30;94741.44;;;4.40;100.00
9676;BME280;4876;42.656;23.292;2023-03-01T04:17:58;94737.28;;;4.39;100.00
9676;BME280;4876;42.656;23.292;2023-03-01T04:20:27;94741.97;;;4.37;100.00
9676;BME280;4876;42.656;23.292;2023-03-01T04:22:59;94736.25;;;4.35;100.00
9676;BME280;4876;42.656;23.292;2023-03-01T04:25:36;94731.28;;;4.39;100.00
9676;BME280;4876;42.656;23.292;2023-03-01T04:28:03;94728.16;;;4.31;100.00
9676;BME280;4876;42.656;23.292;2023-03-01T04:30:30;94742.75;;;4.38;100.00
9676;BME280;4876;42.656;23.292;2023-03-01T04:33:02;94736.78;;;4.37;100.00
9676;BME280;4876;42.656;23.292;2023-03-01T04:35:30;94736.50;;;4.28;100.00
9676;BME280;4876;42.656;23.292;2023-03-01T04:37:58;94740.16;;;4.32;100.00
9676;BME280;4876;42.656;23.292;2023-03-01T04:40:24;94730.78;;;4.31;100.00
9676;BME280;4876;42.656;23.292;2023-03-01T04:42:51;94739.38;;;4.32;100.00
9676;BME280;4876;42.656;23.292;2023-03-01T04:45:18;94732.59;;;4.31;100.00
9676;BME280;4876;42.656;23.292;2023-03-01T04:47:46;94734.16;;;4.32;100.00
9676;BME280;4876;42.656;23.292;2023-03-01T04:50:14;94730.25;;;4.29;100.00
9676;BME280;4876;42.656;23.292;2023-03-01T04:52:42;94730.00;;;4.26;100.00
9676;BME280;4876;42.656;23.292;2023-03-01T04:55:10;94716.47;;;4.29;100.00
9676;BME280;4876;42.656;23.292;2023-03-01T04:57:37;94741.69;;;4.33;100.00
9676;BME280;4876;42.656;23.292;2023-03-01T05:00:06;94722.44;;;4.35;100.00
9676;BME280;4876;42.656;23.292;2023-03-01T05:02:49;94726.09;;;4.33;100.00
9676;BME280;4876;42.656;23.292;2023-03-01T05:05:20;94722.19;;;4.31;100.00
9676;BME280;4876;42.656;23.292;2023-03-01T05:07:52;94723.47;;;4.28;100.00
9676;BME280;4876;42.656;23.292;2023-03-01T05:10:20;94736.25;;;4.30;100.00
9676;BME280;4876;42.656;23.292;2023-03-01T05:12:47;94725.56;;;4.31;100.00
9676;BME280;4876;42.656;23.292;2023-03-01T05:15:14;94735.47;;;4.29;100.00
9676;BME280;4876;42.656;23.292;2023-03-01T05:17:41;94730.25;;;4.29;100.00
9676;BME280;4876;42.656;23.292;2023-03-01T05:20:10;94735.47;;;4.29;100.00
9676;BME280;4876;42.656;23.292;2023-03-01T05:22:37;94742.50;;;4.29;100.00
9676;BME280;4876;42.656;23.292;2023-03-01T05:25:04;94728.94;;;4.27;100.00
9676;BME280;4876;42.656;23.292;2023-03-01T05:27:34;94737.53;;;4.27;100.00
9676;BME280;4876;42.656;23.292;2023-03-01T05:30:01;94735.97;;;4.31;100.00
9676;BME280;4876;42.656;23.292;2023-03-01T05:32:40;94743.25;;;4.35;100.00
9676;BME280;4876;42.656;23.292;2023-03-01T05:35:08;94717.22;;;4.35;100.00
9676;BME280;4876;42.656;23.292;2023-03-01T05:37:36;94725.56;;;4.37;100.00
9676;BME280;4876;42.656;23.292;2023-03-01T05:40:03;94743.81;;;4.42;100.00
9676;BME280;4876;42.656;23.292;2023-03-01T05:42:30;94724.81;;;4.41;100.00
9676;BME280;4876;42.656;23.292;2023-03-01T05:44:58;94733.38;;;4.42;100.00
9676;BME280;4876;42.656;23.292;2023-03-01T05:47:25;94741.19;;;4.47;100.00
9676;BME280;4876;42.656;23.292;2023-03-01T05:49:52;94734.94;;;4.48;100.00
9676;BME280;4876;42.656;23.292;2023-03-01T05:52:18;94744.84;;;4.51;100.00
9676;BME280;4876;42.656;23.292;2023-03-01T05:54:45;94753.94;;;4.58;100.00
9676;BME280;4876;42.656;23.292;2023-03-01T05:57:12;94755.25;;;4.56;100.00
9676;BME280;4876;42.656;23.292;2023-03-01T05:59:39;94765.94;;;4.54;100.00
9676;BME280;4876;42.656;23.292;2023-03-01T06:02:07;94756.28;;;4.50;100.00
9676;BME280;4876;42.656;23.292;2023-03-01T06:04:34;94759.41;;;4.52;100.00
9676;BME280;4876;42.656;23.292;2023-03-01T06:07:00;94773.22;;;4.57;100.00
9676;BME280;4876;42.656;23.292;2023-03-01T06:09:27;94782.34;;;4.60;100.00
9676;BME280;4876;42.656;23.292;2023-03-01T06:11:55;94770.34;;;4.59;100.00
9676;BME280;4876;42.656;23.292;2023-03-01T06:14:40;94766.72;;;4.55;100.00
9676;BME280;4876;42.656;23.292;2023-03-01T06:17:08;94778.44;;;4.57;100.00
9676;BME280;4876;42.656;23.292;2023-03-01T06:19:34;94772.19;;;4.53;100.00
9676;BME280;4876;42.656;23.292;2023-03-01T06:22:01;94776.09;;;4.56;100.00
9676;BME280;4876;42.656;23.292;2023-03-01T06:24:28;94776.09;;;4.56;100.00
9676;BME280;4876;42.656;23.292;2023-03-01T06:26:55;94783.38;;;4.54;100.00
9676;BME280;4876;42.656;23.292;2023-03-01T06:29:22;94789.63;;;4.48;100.00
9676;BME280;4876;42.656;23.292;2023-03-01T06:31:48;94766.72;;;4.55;100.00
9676;BME280;4876;42.656;23.292;2023-03-01T06:34:17;94775.81;;;4.52;100.00
9676;BME280;4876;42.656;23.292;2023-03-01T06:36:44;94785.47;;;4.62;100.00
9676;BME280;4876;42.656;23.292;2023-03-01T06:39:11;94789.13;;;4.66;100.00
9676;BME280;4876;42.656;23.292;2023-03-01T06:41:37;94779.47;;;4.72;100.00
9676;BME280;4876;42.656;23.292;2023-03-01T06:44:04;94780.25;;;4.67;100.00
9676;BME280;4876;42.656;23.292;2023-03-01T06:46:31;94782.06;;;4.72;100.00
9676;BME280;4876;42.656;23.292;2023-03-01T06:48:58;94792.75;;;4.70;100.00
9676;BME280;4876;42.656;23.292;2023-03-01T06:51:26;94787.53;;;4.70;100.00
9676;BME280;4876;42.656;23.292;2023-03-01T06:53:53;94787.81;;;4.64;100.00
9676;BME280;4876;42.656;23.292;2023-03-01T06:56:20;94794.84;;;4.63;100.00
9676;BME280;4876;42.656;23.292;2023-03-01T06:58:47;94776.59;;;4.58;100.00
9676;BME280;4876;42.656;23.292;2023-03-01T07:01:13;94786.25;;;4.57;100.00
9676;BME280;4876;42.656;23.292;2023-03-01T07:03:40;94783.63;;;4.57;100.00
9676;BME280;4876;42.656;23.292;2023-03-01T07:06:09;94777.91;;;4.55;100.00
9676;BME280;4876;42.656;23.292;2023-03-01T07:08:38;94788.59;;;4.69;100.00
9676;BME280;4876;42.656;23.292;2023-03-01T07:11:04;94795.63;;;4.69;100.00
9676;BME280;4876;42.656;23.292;2023-03-01T07:13:31;94780.00;;;4.69;100.00
9676;BME280;4876;42.656;23.292;2023-03-01T07:15:58;94789.66;;;4.78;100.00
9676;BME280;4876;42.656;23.292;2023-03-01T07:18:25;94790.16;;;4.75;100.00
9676;BME280;4876;42.656;23.292;2023-03-01T07:20:51;94781.81;;;4.73;100.00
9676;BME280;4876;42.656;23.292;2023-03-01T07:23:18;94787.81;;;4.74;100.00
9676;BME280;4876;42.656;23.292;2023-03-01T07:25:52;94789.66;;;4.78;100.00
9676;BME280;4876;42.656;23.292;2023-03-01T07:28:19;94786.25;;;4.63;100.00
9676;BME280;4876;42.656;23.292;2023-03-01T07:30:46;94774.00;;;4.78;99.97
9676;BME280;4876;42.656;23.292;2023-03-01T07:33:13;94771.66;;;4.92;98.70
9676;BME280;4876;42.656;23.292;2023-03-01T07:35:40;94771.38;;;4.94;98.22
9676;BME280;4876;42.656;23.292;2023-03-01T07:38:06;94781.78;;;4.99;97.18
9676;BME280;4876;42.656;23.292;2023-03-01T07:40:33;94773.19;;;4.98;97.81
9676;BME280;4876;42.656;23.292;2023-03-01T07:43:02;94790.66;;;4.98;96.64
9676;BME280;4876;42.656;23.292;2023-03-01T07:45:29;94792.22;;;4.99;96.88
9676;BME280;4876;42.656;23.292;2023-03-01T07:47:55;94775.53;;;5.00;97.00
9676;BME280;4876;42.656;23.292;2023-03-01T07:50:22;94776.31;;;5.10;96.89
9676;BME280;4876;42.656;23.292;2023-03-01T07:52:49;94771.31;;;5.14;93.54
9676;BME280;4876;42.656;23.292;2023-03-01T07:55:16;94783.31;;;5.15;94.12
9676;BME280;4876;42.656;23.292;2023-03-01T07:57:43;94761.41;;;5.26;94.34
9676;BME280;4876;42.656;23.292;2023-03-01T08:00:12;94760.38;;;5.22;93.62
9676;BME280;4876;42.656;23.292;2023-03-01T08:02:39;94758.78;;;5.21;93.96
9676;BME280;4876;42.656;23.292;2023-03-01T08:05:07;94765.34;;;5.19;94.55
9676;BME280;4876;42.656;23.292;2023-03-01T08:07:34;94750.97;;;5.21;93.64
9676;BME280;4876;42.656;23.292;2023-03-01T08:10:01;94761.41;;;5.21;93.25
9676;BME280;4876;42.656;23.292;2023-03-01T08:12:28;94766.59;;;5.26;93.10
9676;BME280;4876;42.656;23.292;2023-03-01T08:14:55;94760.88;;;5.34;93.11
9676;BME280;4876;42.656;23.292;2023-03-01T08:17:23;94752.53;;;5.27;92.34
9676;BME280;4876;42.656;23.292;2023-03-01T08:19:50;94756.88;;;5.52;92.67
9676;BME280;4876;42.656;23.292;2023-03-01T08:22:17;94769.94;;;5.47;91.73
9676;BME280;4876;42.656;23.292;2023-03-01T08:24:44;94751.97;;;5.40;91.33
9676;BME280;4876;42.656;23.292;2023-03-01T08:27:11;94771.25;;;5.45;91.31
9676;BME280;4876;42.656;23.292;2023-03-01T08:29:38;94760.28;;;5.53;90.62
9676;BME280;4876;42.656;23.292;2023-03-01T08:32:05;94761.25;;;5.72;88.79
9676;BME280;4876;42.656;23.292;2023-03-01T08:34:33;94760.69;;;5.75;88.68
9676;BME280;4876;42.656;23.292;2023-03-01T08:37:01;94759.19;;;5.59;87.65
9676;BME280;4876;42.656;23.292;2023-03-01T08:39:28;94765.25;;;5.49;88.64
9676;BME280;4876;42.656;23.292;2023-03-01T08:41:54;94766.03;;;5.39;88.86
9676;BME280;4876;42.656;23.292;2023-03-01T08:44:21;94774.34;;;5.57;89.75
9676;BME280;4876;42.656;23.292;2023-03-01T08:46:48;94772.22;;;5.59;88.98
9676;BME280;4876;42.656;23.292;2023-03-01T08:49:18;94774.81;;;5.64;88.74
9676;BME280;4876;42.656;23.292;2023-03-01T08:51:47;94751.31;;;5.69;88.05
9676;BME280;4876;42.656;23.292;2023-03-01T08:54:15;94770.53;;;5.88;86.19
9676;BME280;4876;42.656;23.292;2023-03-01T08:56:43;94769.94;;;6.12;85.39
9676;BME280;4876;42.656;23.292;2023-03-01T08:59:11;94780.06;;;6.18;84.25
9676;BME280;4876;42.656;23.292;2023-03-01T09:01:38;94776.19;;;6.16;83.94
9676;BME280;4876;42.656;23.292;2023-03-01T09:04:05;94777.13;;;6.30;83.38
9676;BME280;4876;42.656;23.292;2023-03-01T09:06:33;94771.41;;;5.74;84.44
9676;BME280;4876;42.656;23.292;2023-03-01T09:09:03;94749.28;;;5.66;85.94
9676;BME280;4876;42.656;23.292;2023-03-01T09:11:30;94772.69;;;5.76;86.28
9676;BME280;4876;42.656;23.292;2023-03-01T09:13:58;94784.44;;;5.74;87.15
9676;BME280;4876;42.656;23.292;2023-03-01T09:16:25;94767.91;;;5.99;86.41
9676;BME280;4876;42.656;23.292;2023-03-01T09:18:53;94767.22;;;6.27;84.79
9676;BME280;4876;42.656;23.292;2023-03-01T09:21:22;94754.69;;;6.29;84.56
9676;BME280;4876;42.656;23.292;2023-03-01T09:23:49;94749.31;;;6.10;84.62
9676;BME280;4876;42.656;23.292;2023-03-01T09:26:20;94768.22;;;6.36;84.85
9676;BME280;4876;42.656;23.292;2023-03-01T09:28:47;94761.19;;;6.32;84.08
9676;BME280;4876;42.656;23.292;2023-03-01T09:31:16;94780.41;;;6.02;84.18
9676;BME280;4876;42.656;23.292;2023-03-01T09:33:45;94762.28;;;6.20;84.73
9676;BME280;4876;42.656;23.292;2023-03-01T09:36:14;94756.22;;;6.30;84.35
9676;BME280;4876;42.656;23.292;2023-03-01T09:38:41;94747.03;;;5.99;85.00
9676;BME280;4876;42.656;23.292;2023-03-01T09:41:30;94766.25;;;6.13;86.02
9676;BME280;4876;42.656;23.292;2023-03-01T09:44:03;94751.00;;;6.30;85.28
9676;BME280;4876;42.656;23.292;2023-03-01T09:46:39;94732.59;;;6.45;82.42
9676;BME280;4876;42.656;23.292;2023-03-01T09:49:12;94744.06;;;6.50;81.84
9676;BME280;4876;42.656;23.292;2023-03-01T09:51:42;94735.97;;;6.51;83.30
9676;BME280;4876;42.656;23.292;2023-03-01T09:54:10;94745.22;;;6.33;83.46
9676;BME280;4876;42.656;23.292;2023-03-01T09:56:41;94742.72;;;6.18;85.47
9676;BME280;4876;42.656;23.292;2023-03-01T09:59:17;94733.38;;;6.12;85.31
9676;BME280;4876;42.656;23.292;2023-03-01T10:01:52;94730.06;;;5.96;86.29
9676;BME280;4876;42.656;23.292;2023-03-01T10:04:37;94741.34;;;5.86;86.87
9676;BME280;4876;42.656;23.292;2023-03-01T10:07:21;94713.97;;;5.79;87.50
9676;BME280;4876;42.656;23.292;2023-03-01T10:09:48;94743.34;;;6.05;86.88
9676;BME280;4876;42.656;23.292;2023-03-01T10:12:19;94733.50;;;5.91;87.29
9676;BME280;4876;42.656;23.292;2023-03-01T10:14:57;94725.66;;;5.97;87.74
9676;BME280;4876;42.656;23.292;2023-03-01T10:17:32;94719.22;;;6.23;87.57
9676;BME280;4876;42.656;23.292;2023-03-01T10:20:17;94722.03;;;6.27;86.66
9676;BME280;4876;42.656;23.292;2023-03-01T10:22:44;94717.53;;;6.37;85.62
9676;BME280;4876;42.656;23.292;2023-03-01T10:25:17;94714.50;;;6.20;86.41
9676;BME280;4876;42.656;23.292;2023-03-01T10:27:53;94726.13;;;6.04;86.64
9676;BME280;4876;42.656;23.292;2023-03-01T10:30:22;94711.53;;;5.98;87.07
9676;BME280;4876;42.656;23.292;2023-03-01T10:32:53;94707.53;;;6.10;87.48
9676;BME280;4876;42.656;23.292;2023-03-01T10:35:22;94709.63;;;6.47;86.50
9676;BME280;4876;42.656;23.292;2023-03-01T10:37:58;94715.13;;;6.46;85.47
9676;BME280;4876;42.656;23.292;2023-03-01T10:40:25;94695.66;;;6.57;85.15
9676;BME280;4876;42.656;23.292;2023-03-01T10:42:53;94703.50;;;6.57;84.94
9676;BME280;4876;42.656;23.292;2023-03-01T10:45:31;94712.59;;;6.65;84.76
9676;BME280;4876;42.656;23.292;2023-03-01T10:48:04;94701.53;;;6.44;84.93
9676;BME280;4876;42.656;23.292;2023-03-01T10:50:31;94693.50;;;6.64;84.58
9676;BME280;4876;42.656;23.292;2023-03-01T10:52:59;94699.22;;;6.71;84.07
9676;BME280;4876;42.656;23.292;2023-03-01T10:55:31;94707.78;;;6.77;84.03
9676;BME280;4876;42.656;23.292;2023-03-01T10:58:12;94693.81;;;6.34;84.39
9676;BME280;4876;42.656;23.292;2023-03-01T11:00:51;94697.13;;;6.39;85.37
9676;BME280;4876;42.656;23.292;2023-03-01T11:03:21;94702.53;;;6.14;85.91
9676;BME280;4876;42.656;23.292;2023-03-01T11:05:55;94695.09;;;6.31;85.87
9676;BME280;4876;42.656;23.292;2023-03-01T11:08:46;94697.41;;;6.67;84.83
9676;BME280;4876;42.656;23.292;2023-03-01T11:11:21;94699.53;;;6.65;83.67
9676;BME280;4876;42.656;23.292;2023-03-01T11:13:56;94713.34;;;6.36;84.26
9676;BME280;4876;42.656;23.292;2023-03-01T11:16:29;94715.72;;;6.33;85.31
9676;BME280;4876;42.656;23.292;2023-03-01T11:18:58;94705.94;;;6.48;85.46
9676;BME280;4876;42.656;23.292;2023-03-01T11:21:28;94703.19;;;6.64;84.37
9676;BME280;4876;42.656;23.292;2023-03-01T11:23:57;94696.56;;;6.47;84.35
9676;BME280;4876;42.656;23.292;2023-03-01T11:26:27;94699.06;;;6.58;84.74
9676;BME280;4876;42.656;23.292;2023-03-01T11:28:59;94705.88;;;6.59;84.22
9676;BME280;4876;42.656;23.292;2023-03-01T11:31:28;94698.59;;;6.51;84.25
9676;BME280;4876;42.656;23.292;2023-03-01T11:33:59;94692.81;;;6.59;85.08
9676;BME280;4876;42.656;23.292;2023-03-01T11:36:34;94683.00;;;6.69;83.35
9676;BME280;4876;42.656;23.292;2023-03-01T11:39:14;94686.41;;;6.70;83.10
9676;BME280;4876;42.656;23.292;2023-03-01T11:41:48;94675.31;;;6.83;83.68
9676;BME280;4876;42.656;23.292;2023-03-01T11:44:24;94675.81;;;6.85;83.09
9676;BME280;4876;42.656;23.292;2023-03-01T11:47:19;94674.81;;;6.81;83.72
9676;BME280;4876;42.656;23.292;2023-03-01T11:50:18;94666.97;;;6.81;83.51
9676;BME280;4876;42.656;23.292;2023-03-01T11:52:54;94664.06;;;6.83;83.81
9676;BME280;4876;42.656;23.292;2023-03-01T11:55:35;94652.19;;;6.71;83.17
9676;BME280;4876;42.656;23.292;2023-03-01T11:58:27;94660.75;;;6.77;82.51
9676;BME280;4876;42.656;23.292;2023-03-01T12:01:08;94663.38;;;6.77;83.62
9676;BME280;4876;42.656;23.292;2023-03-01T12:03:51;94656.94;;;6.88;82.96
9676;BME280;4876;42.656;23.292;2023-03-01T12:06:38;94653.78;;;6.91;81.84
9676;BME280;4876;42.656;23.292;2023-03-01T12:09:30;94654.19;;;7.04;81.45
9676;BME280;4876;42.656;23.292;2023-03-01T12:12:26;94653.63;;;7.07;80.51
9676;BME280;4876;42.656;23.292;2023-03-01T12:18:12;94649.78;;;6.99;80.54
9676;BME280;4876;42.656;23.292;2023-03-01T12:20:49;94646.00;;;6.86;81.05
9676;BME280;4876;42.656;23.292;2023-03-01T12:23:46;94640.44;;;6.69;82.16
9676;BME280;4876;42.656;23.292;2023-03-01T12:26:26;94635.19;;;6.69;83.40
9676;BME280;4876;42.656;23.292;2023-03-01T12:29:17;94639.16;;;6.90;82.72
9676;BME280;4876;42.656;23.292;2023-03-01T12:32:02;94635.69;;;7.19;81.04
9676;BME280;4876;42.656;23.292;2023-03-01T12:34:42;94631.47;;;7.23;79.82
9676;BME280;4876;42.656;23.292;2023-03-01T12:37:22;94630.88;;;7.26;79.87
9676;BME280;4876;42.656;23.292;2023-03-01T12:40:13;94621.31;;;7.40;79.24
9676;BME280;4876;42.656;23.292;2023-03-01T12:42:48;94628.34;;;7.21;79.69
9676;BME280;4876;42.656;23.292;2023-03-01T12:45:41;94625.53;;;7.36;79.34
9676;BME280;4876;42.656;23.292;2023-03-01T12:48:22;94624.13;;;7.63;77.96
9676;BME280;4876;42.656;23.292;2023-03-01T12:50:53;94633.25;;;7.65;77.70
9676;BME280;4876;42.656;23.292;2023-03-01T12:53:24;94622.97;;;7.88;78.34
9676;BME280;4876;42.656;23.292;2023-03-01T12:55:53;94622.53;;;7.99;77.24
9676;BME280;4876;42.656;23.292;2023-03-01T12:58:28;94632.31;;;7.75;77.26
9676;BME280;4876;42.656;23.292;2023-03-01T13:01:06;94634.59;;;7.63;78.38
9676;BME280;4876;42.656;23.292;2023-03-01T13:03:59;94633.63;;;7.59;77.82
9676;BME280;4876;42.656;23.292;2023-03-01T13:06:35;94625.53;;;7.74;77.42
9676;BME280;4876;42.656;23.292;2023-03-01T13:09:14;94633.53;;;7.82;76.93
9676;BME280;4876;42.656;23.292;2023-03-01T13:11:45;94620.16;;;7.84;77.15
9676;BME280;4876;42.656;23.292;2023-03-01T13:14:45;94628.44;;;7.91;77.80
9676;BME280;4876;42.656;23.292;2023-03-01T13:17:39;94630.47;;;7.94;75.99
9676;BME280;4876;42.656;23.292;2023-03-01T13:20:13;94633.59;;;7.96;76.99
9676;BME280;4876;42.656;23.292;2023-03-01T13:22:42;94630.06;;;7.87;77.19
9676;BME280;4876;42.656;23.292;2023-03-01T13:25:15;94630.97;;;7.96;77.66
9676;BME280;4876;42.656;23.292;2023-03-01T13:27:42;94634.94;;;7.94;76.86
9676;BME280;4876;42.656;23.292;2023-03-01T13:30:38;94644.56;;;7.61;77.59
9676;BME280;4876;42.656;23.292;2023-03-01T13:36:08;94634.44;;;7.35;78.98
9676;BME280;4876;42.656;23.292;2023-03-01T13:38:48;94645.47;;;7.32;80.22
9676;BME280;4876;42.656;23.292;2023-03-01T13:41:16;94634.56;;;7.25;81.08